Time;durP1;ratioP1;P1;durP2;ratioP2;P2;SDS_P1;SDS_P2;PMS_P1;PMS_P2;Temp;Humidity;BMP_temperature;BMP_pressure;BME280_temperature;BME280_humidity;BME280_pressure;Samples;Min_cycle;Max_cycle;Signal;HPM_P1;HPM_P2
2022/03/12 00:00:10;;;;;;;14.93;5.45;;;;;;;13.65;36.40;98810.22;4917731;29;20119;-49
2022/03/12 00:02:36;;;;;;;9.90;5.20;;;;;;;13.74;36.58;98818.63;4917655;29;20062;-50
2022/03/12 00:05:09;;;;;;;8.88;4.13;;;;;;;13.61;36.27;98816.94;4917597;29;20558;-49
2022/03/12 00:07:42;;;;;;;5.38;3.60;;;;;;;13.72;35.98;98808.31;4917634;29;20024;-50
2022/03/12 00:10:13;;;;;;;5.60;3.88;;;;;;;13.65;36.03;98807.56;4917617;29;20068;-50
2022/03/12 00:12:41;;;;;;;8.48;4.40;;;;;;;13.61;36.15;98809.03;4917569;29;20055;-50
2022/03/12 00:15:10;;;;;;;4.93;3.47;;;;;;;13.54;36.30;98811.72;4917199;29;20051;-49
2022/03/12 00:17:39;;;;;;;6.22;3.72;;;;;;;13.64;36.26;98808.56;4916136;29;20043;-49
2022/03/12 00:20:12;;;;;;;11.07;5.03;;;;;;;13.71;38.95;98804.06;4917374;29;20023;-49
2022/03/12 00:22:43;;;;;;;5.05;3.50;;;;;;;13.60;36.90;98810.03;4917312;29;20047;-50
2022/03/12 00:25:10;;;;;;;5.25;3.90;;;;;;;13.38;37.13;98805.16;4915954;29;20036;-49
2022/03/12 00:27:41;;;;;;;5.80;3.63;;;;;;;13.37;37.53;98811.44;4917277;29;20421;-49
2022/03/12 00:30:16;;;;;;;39.22;35.20;;;;;;;13.31;38.06;98814.16;4915877;29;20438;-49
2022/03/12 00:32:42;;;;;;;13.70;12.38;;;;;;;13.25;37.89;98810.50;4915931;29;20044;-49
2022/03/12 00:35:11;;;;;;;38.33;34.00;;;;;;;13.41;38.96;98816.31;4917003;29;20024;-50
2022/03/12 00:37:37;;;;;;;15.63;9.73;;;;;;;13.37;38.98;98803.53;4917026;29;20028;-49
2022/03/12 00:40:05;;;;;;;6.38;4.15;;;;;;;13.31;37.81;98796.50;4915661;29;20026;-50
2022/03/12 00:42:31;;;;;;;5.15;3.35;;;;;;;13.13;38.22;98809.59;4915662;29;20054;-50
2022/03/12 00:44:58;;;;;;;6.68;3.45;;;;;;;13.01;38.88;98798.91;4916943;29;20111;-49
2022/03/12 00:47:24;;;;;;;6.50;3.33;;;;;;;13.03;38.80;98793.44;4917153;29;20080;-49
2022/03/12 00:49:50;;;;;;;4.93;3.20;;;;;;;12.88;38.62;98807.72;4915541;29;20421;-50
2022/03/12 00:52:17;;;;;;;6.80;3.25;;;;;;;12.68;38.99;98791.22;4916800;29;20032;-49
2022/03/12 00:54:43;;;;;;;4.60;2.92;;;;;;;12.59;39.33;98788.03;4915471;29;20502;-49
2022/03/12 00:57:11;;;;;;;6.13;2.58;;;;;;;12.60;39.45;98792.28;4915272;29;20084;-48
2022/03/12 00:59:40;;;;;;;5.53;2.70;;;;;;;12.76;38.96;98783.88;4916675;29;20024;-50
2022/03/12 01:02:07;;;;;;;7.88;3.25;;;;;;;12.82;38.98;98790.13;4916615;29;20629;-49
2022/03/12 01:04:34;;;;;;;4.72;3.03;;;;;;;12.74;38.72;98785.91;4916321;29;20562;-49
2022/03/12 01:07:00;;;;;;;7.35;3.22;;;;;;;12.56;39.84;98777.94;4916472;29;20525;-49
2022/03/12 01:09:25;;;;;;;6.43;3.05;;;;;;;12.44;39.62;98783.03;4916471;29;20028;-49
2022/03/12 01:11:51;;;;;;;6.47;2.60;;;;;;;12.48;40.04;98773.72;4915112;29;20028;-49
2022/03/12 01:14:17;;;;;;;5.43;2.78;;;;;;;12.44;39.59;98763.81;4916164;29;20035;-49
2022/03/12 01:16:43;;;;;;;6.82;3.20;;;;;;;12.37;40.01;98787.50;4916335;29;20059;-49
2022/03/12 01:19:09;;;;;;;5.75;2.75;;;;;;;12.31;39.73;98772.56;4916288;29;20032;-49
2022/03/12 01:21:34;;;;;;;3.35;2.75;;;;;;;12.39;39.42;98788.13;4916270;29;20023;-49
2022/03/12 01:24:00;;;;;;;5.63;2.90;;;;;;;12.30;39.85;98779.66;4916323;29;20076;-50
2022/03/12 01:26:26;;;;;;;5.72;2.55;;;;;;;12.30;39.79;98765.69;4930791;29;20033;-49
2022/03/12 01:28:52;;;;;;;5.50;3.38;;;;;;;12.31;40.10;98804.94;4914925;29;20536;-50
2022/03/12 01:31:18;;;;;;;5.13;3.13;;;;;;;12.45;39.43;98804.91;4916139;29;20443;-49
2022/03/12 01:33:45;;;;;;;4.32;3.00;;;;;;;12.58;39.11;98805.66;4914831;29;20020;-49
2022/03/12 01:36:12;;;;;;;4.43;2.33;;;;;;;12.59;39.09;98811.72;4915972;29;20029;-49
2022/03/12 01:38:46;;;;;;;5.10;2.92;;;;;;;12.64;39.66;98819.81;4914723;29;20036;-49
2022/03/12 01:41:13;;;;;;;4.47;2.75;;;;;;;12.75;38.47;98798.06;4915936;29;20024;-49
2022/03/12 01:43:39;;;;;;;4.70;2.60;;;;;;;12.73;38.59;98820.34;4914707;29;20074;-49
2022/03/12 01:46:10;;;;;;;3.75;2.80;;;;;;;12.87;38.84;98832.44;4915880;29;20032;-49
2022/03/12 01:48:44;;;;;;;5.93;2.88;;;;;;;12.96;38.23;98825.09;4915982;29;20025;-49
2022/03/12 01:51:09;;;;;;;7.65;2.80;;;;;;;13.04;38.18;98824.84;4914537;29;20032;-49
2022/03/12 01:53:35;;;;;;;5.65;2.70;;;;;;;13.14;38.03;98824.38;4915835;29;20047;-50
2022/03/12 01:56:02;;;;;;;4.75;3.17;;;;;;;13.23;37.58;98823.09;4914329;29;20020;-49
2022/03/12 01:58:28;;;;;;;7.88;2.72;;;;;;;13.24;37.75;98822.06;4915729;29;20036;-49
2022/03/12 02:00:57;;;;;;;7.80;3.00;;;;;;;13.26;38.02;98819.22;4914425;29;20039;-49
2022/03/12 02:03:26;;;;;;;4.35;2.65;;;;;;;13.28;37.59;98825.91;4915732;29;20035;-49
2022/03/12 02:05:53;;;;;;;4.57;2.90;;;;;;;13.25;37.33;98823.69;4915693;29;20028;-48
2022/03/12 02:08:19;;;;;;;10.93;4.50;;;;;;;13.27;37.91;98826.09;4915595;29;20111;-48
2022/03/12 02:10:47;;;;;;;5.45;3.10;;;;;;;13.27;37.52;98810.28;4915645;29;20024;-50
2022/03/12 02:13:13;;;;;;;3.67;2.40;;;;;;;13.20;37.29;98826.16;4914264;29;20095;-49
2022/03/12 02:15:40;;;;;;;5.43;2.83;;;;;;;13.29;36.76;98808.25;4915341;29;20052;-49
2022/03/12 02:18:06;;;;;;;6.88;2.95;;;;;;;13.35;37.07;98795.03;4916651;29;20032;-49
2022/03/12 02:20:33;;;;;;;7.25;3.28;;;;;;;13.62;36.75;98794.00;4919462;29;20103;-49
2022/03/12 02:22:59;;;;;;;6.00;2.63;;;;;;;13.97;35.68;98783.72;4918170;29;20096;-50
2022/03/12 02:25:31;;;;;;;5.25;2.78;;;;;;;14.22;35.62;98777.53;4918394;29;20036;-50
2022/03/12 02:27:58;;;;;;;4.63;2.80;;;;;;;14.34;34.66;98767.84;4919390;29;20035;-49
2022/03/12 02:30:44;;;;;;;7.28;2.50;;;;;;;14.43;34.65;98777.09;4919626;29;20036;-49
2022/03/12 02:33:13;;;;;;;4.05;3.08;;;;;;;14.25;34.78;98777.13;4919342;29;20024;-49
2022/03/12 02:35:38;;;;;;;7.07;3.38;;;;;;;14.16;34.97;98780.03;4919186;29;20028;-49
2022/03/12 02:38:07;;;;;;;2.85;2.42;;;;;;;14.10;35.20;98780.91;4919238;29;20020;-49
2022/03/12 02:40:33;;;;;;;4.50;2.75;;;;;;;14.11;35.19;98781.75;4919194;29;20028;-49
2022/03/12 02:43:01;;;;;;;7.40;2.88;;;;;;;14.06;35.25;98777.09;4919109;29;20025;-49
2022/03/12 02:45:28;;;;;;;5.22;3.13;;;;;;;14.03;34.93;98771.47;4919041;29;20502;-49
2022/03/12 02:47:57;;;;;;;5.75;3.28;;;;;;;13.99;35.22;98779.81;4919008;29;20046;-49
2022/03/12 02:50:24;;;;;;;12.75;3.28;;;;;;;14.00;35.08;98783.25;4917691;29;20529;-49
2022/03/12 02:52:50;;;;;;;7.68;2.85;;;;;;;14.01;34.89;98770.91;4917708;29;20028;-50
2022/03/12 02:55:22;;;;;;;7.57;3.10;;;;;;;13.90;35.12;98767.13;4917507;29;20075;-49
2022/03/12 02:57:50;;;;;;;3.08;2.35;;;;;;;13.83;34.38;98767.22;4918882;29;20028;-49
2022/03/12 03:00:18;;;;;;;6.68;2.70;;;;;;;13.75;34.87;98765.66;4917538;29;20036;-49
2022/03/12 03:02:56;;;;;;;4.70;2.67;;;;;;;13.76;34.50;98766.47;4918775;29;20443;-49
2022/03/12 03:08:03;;;;;;;9.75;2.60;;;;;;;13.78;34.37;98764.41;4919033;29;20044;-49
2022/03/12 03:10:34;;;;;;;5.47;2.70;;;;;;;13.76;34.35;98756.75;4917311;29;20122;-49
2022/03/12 03:13:21;;;;;;;7.35;2.47;;;;;;;13.76;34.59;98755.91;4918599;29;20024;-49
2022/03/12 03:16:00;;;;;;;5.20;2.42;;;;;;;13.62;34.46;98754.44;4914471;29;20040;-49
2022/03/12 03:18:29;;;;;;;6.07;2.80;;;;;;;13.60;34.75;98765.22;4918558;29;20028;-49
2022/03/12 03:20:56;;;;;;;6.53;2.40;;;;;;;13.63;34.36;98759.50;4918683;29;20024;-49
2022/03/12 03:23:24;;;;;;;8.15;2.63;;;;;;;13.65;34.59;98754.81;4917129;29;20036;-49
2022/03/12 03:25:50;;;;;;;4.32;2.22;;;;;;;13.62;33.98;98759.72;4918348;29;20024;-48
2022/03/12 03:28:16;;;;;;;3.63;1.80;;;;;;;13.54;34.48;98759.00;4918074;29;20024;-50
2022/03/12 03:30:42;;;;;;;5.13;2.72;;;;;;;13.55;34.24;98751.88;4918296;29;20469;-49
2022/03/12 03:33:11;;;;;;;5.22;2.67;;;;;;;13.55;34.36;98757.16;4918241;29;20116;-49
2022/03/12 03:35:38;;;;;;;3.83;2.35;;;;;;;13.54;34.04;98755.53;4918137;29;20028;-49
2022/03/12 03:38:05;;;;;;;13.45;3.20;;;;;;;13.43;34.63;98758.91;4916858;29;20124;-49
2022/03/12 03:40:31;;;;;;;6.32;2.63;;;;;;;13.46;34.42;98758.44;4918101;29;20099;-49
2022/03/12 03:42:57;;;;;;;5.53;2.40;;;;;;;13.46;34.76;98764.53;4918042;29;20059;-50
2022/03/12 03:45:27;;;;;;;2.85;1.95;;;;;;;13.51;34.22;98762.06;4916735;29;20032;-49
2022/03/12 03:47:55;;;;;;;6.47;3.10;;;;;;;13.49;34.43;98758.03;4918027;29;20032;-49
2022/03/12 03:50:25;;;;;;;3.00;2.30;;;;;;;13.50;34.43;98764.91;4917926;29;20494;-49
2022/03/12 03:52:57;;;;;;;4.18;2.60;;;;;;;13.57;34.67;98761.19;4917860;29;20051;-49
2022/03/12 03:55:26;;;;;;;6.07;3.03;;;;;;;13.67;34.00;98763.31;4916572;29;20038;-49
2022/03/12 03:57:56;;;;;;;4.22;2.63;;;;;;;13.68;34.60;98769.41;4916478;29;20512;-49
2022/03/12 04:00:24;;;;;;;5.80;2.67;;;;;;;13.72;34.32;98766.13;4916450;29;20422;-49
2022/03/12 04:03:02;;;;;;;5.93;2.70;;;;;;;13.66;34.23;98750.34;4917699;29;20550;-50
2022/03/12 04:05:38;;;;;;;5.20;2.88;;;;;;;13.62;34.10;98749.16;4917730;29;20036;-48
2022/03/12 04:08:08;;;;;;;6.70;3.10;;;;;;;13.64;34.09;98755.03;4917645;29;20104;-49
2022/03/12 04:10:35;;;;;;;3.97;2.65;;;;;;;13.70;34.85;98751.53;4917594;29;20554;-49
2022/03/12 04:13:02;;;;;;;6.13;2.65;;;;;;;13.66;34.50;98745.06;4917483;29;20115;-48
2022/03/12 04:15:28;;;;;;;4.55;2.60;;;;;;;13.63;34.58;98741.03;4917136;29;20127;-49
2022/03/12 04:17:54;;;;;;;9.13;3.30;;;;;;;13.67;34.82;98741.44;4917461;29;20479;-49
2022/03/12 04:20:21;;;;;;;9.68;4.78;;;;;;;13.78;34.57;98746.78;4917393;29;20553;-49
2022/03/12 04:22:50;;;;;;;3.88;2.55;;;;;;;13.76;34.35;98734.81;4917325;29;20039;-49
2022/03/12 04:25:17;;;;;;;7.40;3.22;;;;;;;13.66;35.15;98740.63;4917316;29;20024;-49
2022/03/12 04:27:44;;;;;;;7.35;3.50;;;;;;;13.62;35.50;98744.69;4917300;29;20028;-49
2022/03/12 04:30:12;;;;;;;5.45;2.67;;;;;;;13.60;36.13;98749.38;4915898;29;20035;-49
2022/03/12 04:32:39;;;;;;;5.47;2.97;;;;;;;13.59;36.25;98760.97;4917176;29;20083;-49
2022/03/12 04:35:06;;;;;;;4.57;2.53;;;;;;;13.65;36.59;98760.09;4917125;29;20035;-50
2022/03/12 04:37:34;;;;;;;8.93;2.95;;;;;;;14.01;35.94;98755.88;4915689;29;20192;-48
2022/03/12 04:40:03;;;;;;;7.13;3.13;;;;;;;14.15;35.72;98748.59;4916374;29;20020;-50
2022/03/12 04:42:29;;;;;;;5.68;3.08;;;;;;;14.14;34.98;98750.41;4917005;29;20024;-49
2022/03/12 04:44:55;;;;;;;5.32;3.40;;;;;;;13.90;35.31;98746.03;4915681;29;20391;-49
2022/03/12 04:47:21;;;;;;;8.50;3.15;;;;;;;13.66;35.94;98767.00;4916893;29;20383;-49
2022/03/12 04:49:47;;;;;;;4.47;3.10;;;;;;;13.51;36.03;98763.88;4916884;29;20190;-50
2022/03/12 04:52:13;;;;;;;14.55;4.53;;;;;;;13.56;37.25;98770.13;4915511;29;20032;-48
2022/03/12 04:54:39;;;;;;;4.82;3.17;;;;;;;13.91;35.96;98774.03;4915520;29;20375;-49
2022/03/12 04:57:05;;;;;;;7.90;3.13;;;;;;;14.14;35.63;98778.66;4916586;29;20495;-49
2022/03/12 04:59:31;;;;;;;6.05;3.03;;;;;;;14.04;35.14;98765.97;4916706;29;20080;-49
2022/03/12 05:01:57;;;;;;;5.93;3.35;;;;;;;13.75;35.54;98770.94;4916605;29;20028;-49
2022/03/12 05:04:23;;;;;;;6.38;3.53;;;;;;;13.48;36.39;98770.41;4916616;29;20039;-49
2022/03/12 05:06:49;;;;;;;6.10;3.35;;;;;;;13.25;36.67;98775.44;4915254;29;20534;-49
2022/03/12 05:09:15;;;;;;;6.35;3.78;;;;;;;13.05;37.14;98775.59;4916823;29;20031;-49
2022/03/12 05:11:41;;;;;;;4.68;3.25;;;;;;;12.94;37.61;98790.25;4916434;29;20028;-49
2022/03/12 05:14:10;;;;;;;6.93;3.58;;;;;;;12.90;37.76;98789.88;4914943;29;20027;-48
2022/03/12 05:16:36;;;;;;;11.65;4.03;;;;;;;12.80;37.96;98789.53;4916362;29;20035;-49
2022/03/12 05:19:06;;;;;;;13.02;4.20;;;;;;;12.86;37.68;98778.16;4915300;29;20494;-49
2022/03/12 05:21:32;;;;;;;5.75;4.28;;;;;;;12.96;37.67;98775.06;4916287;29;20127;-49
2022/03/12 05:23:58;;;;;;;8.48;4.22;;;;;;;13.01;37.83;98787.56;4916189;29;20434;-49
2022/03/12 05:26:24;;;;;;;7.57;3.83;;;;;;;12.97;37.95;98787.19;4916242;29;20032;-49
2022/03/12 05:28:50;;;;;;;7.78;2.80;;;;;;;13.01;37.85;98769.13;4916216;29;20024;-49
2022/03/12 05:31:17;;;;;;;6.50;3.40;;;;;;;13.10;37.64;98760.75;4916125;29;20463;-50
2022/03/12 05:33:43;;;;;;;14.38;6.45;;;;;;;13.15;37.46;98760.09;4914788;29;20030;-49
2022/03/12 05:36:09;;;;;;;6.55;3.50;;;;;;;13.26;37.30;98763.84;4916009;29;20491;-49
2022/03/12 05:38:35;;;;;;;10.50;4.00;;;;;;;13.37;37.48;98771.91;4916024;29;20043;-49
2022/03/12 05:41:01;;;;;;;9.73;6.30;;;;;;;13.51;37.31;98771.81;4915933;29;20020;-50
2022/03/12 05:43:30;;;;;;;6.25;2.92;;;;;;;13.47;36.86;98771.41;4914696;29;20039;-49
2022/03/12 05:45:56;;;;;;;7.75;3.00;;;;;;;13.42;37.22;98779.19;4915919;29;20086;-49
2022/03/12 05:48:22;;;;;;;6.85;2.67;;;;;;;13.37;37.36;98779.00;4915930;29;20772;-49
2022/03/12 05:50:49;;;;;;;7.75;3.60;;;;;;;13.19;37.56;98790.28;4915792;29;20023;-49
2022/03/12 05:53:17;;;;;;;11.75;3.53;;;;;;;13.19;37.99;98798.19;4914590;29;20052;-49
2022/03/12 05:55:43;;;;;;;7.50;3.22;;;;;;;13.39;38.22;98792.78;4915751;29;20020;-49
2022/03/12 05:58:11;;;;;;;11.82;4.03;;;;;;;13.36;38.12;98793.19;4915784;29;20024;-50
2022/03/12 06:00:37;;;;;;;7.25;3.13;;;;;;;13.36;38.22;98809.03;4914423;29;20115;-49
2022/03/12 06:03:03;;;;;;;8.63;3.53;;;;;;;13.24;38.55;98798.34;4915731;29;20043;-49
2022/03/12 06:05:31;;;;;;;6.25;3.58;;;;;;;13.30;38.40;98810.72;4914468;29;20032;-49
2022/03/12 06:07:59;;;;;;;15.20;5.20;;;;;;;13.31;38.74;98809.66;4915645;29;20095;-50
2022/03/12 06:10:29;;;;;;;6.65;3.17;;;;;;;13.44;38.48;98818.50;4915636;29;20048;-49
2022/03/12 06:12:56;;;;;;;7.25;2.97;;;;;;;13.57;37.98;98815.75;4915643;29;20035;-48
2022/03/12 06:15:24;;;;;;;6.72;4.82;;;;;;;13.71;38.26;98830.44;4915324;29;20050;-49
2022/03/12 06:17:50;;;;;;;5.93;2.97;;;;;;;13.89;37.93;98836.78;4915652;29;20111;-49
2022/03/12 06:20:20;;;;;;;9.73;2.78;;;;;;;13.79;37.50;98835.44;4915614;29;20020;-49
2022/03/12 06:22:47;;;;;;;6.03;3.83;;;;;;;13.74;38.02;98830.00;4915615;29;20095;-48
2022/03/12 06:25:16;;;;;;;5.68;3.42;;;;;;;13.85;37.52;98831.13;4914293;29;20024;-50
2022/03/12 06:27:43;;;;;;;4.05;3.65;;;;;;;13.73;37.16;98822.31;4915523;29;20024;-49
2022/03/12 06:30:12;;;;;;;12.02;4.63;;;;;;;13.56;37.96;98824.69;4915479;29;20028;-49
2022/03/12 06:32:42;;;;;;;8.15;3.50;;;;;;;13.49;38.12;98819.47;4915427;29;20024;-49
2022/03/12 06:35:10;;;;;;;8.68;3.40;;;;;;;13.55;38.09;98813.34;4915455;29;20106;-49
2022/03/12 06:37:36;;;;;;;12.30;4.25;;;;;;;13.46;38.25;98824.34;4914029;29;20028;-48
2022/03/12 06:40:02;;;;;;;9.77;5.57;;;;;;;13.59;38.04;98814.50;4914086;29;20051;-47
2022/03/12 06:42:32;;;;;;;12.18;4.93;;;;;;;13.46;38.23;98808.53;4915429;29;20111;-49
2022/03/12 06:44:58;;;;;;;5.85;3.80;;;;;;;13.31;38.61;98807.03;4915428;29;20032;-49
2022/03/12 06:47:30;;;;;;;9.65;6.07;;;;;;;13.36;38.28;98812.47;4914020;29;20035;-49
2022/03/12 06:49:57;;;;;;;6.95;4.03;;;;;;;13.14;39.33;98798.84;4915357;29;20111;-49
2022/03/12 06:52:27;;;;;;;8.55;3.67;;;;;;;13.03;39.96;98798.72;4914022;29;20021;-49
2022/03/12 06:54:54;;;;;;;5.90;3.60;;;;;;;13.21;39.51;98795.34;4914024;29;20118;-49
2022/03/12 06:57:20;;;;;;;9.85;5.38;;;;;;;13.27;39.46;98790.00;4915132;29;20398;-50
2022/03/12 06:59:46;;;;;;;10.48;4.07;;;;;;;13.26;39.15;98798.94;4915220;29;20035;-48
2022/03/12 07:02:12;;;;;;;3.92;3.17;;;;;;;13.33;38.82;98805.00;4915241;29;20024;-49
2022/03/12 07:04:38;;;;;;;7.20;3.75;;;;;;;13.29;39.20;98824.91;4918108;29;20047;-48
2022/03/12 07:07:04;;;;;;;10.50;3.67;;;;;;;13.26;38.94;98825.31;4918726;29;20028;-50
2022/03/12 07:09:30;;;;;;;6.63;3.58;;;;;;;13.18;39.31;98822.94;4918702;29;20097;-50
2022/03/12 07:11:59;;;;;;;8.95;3.50;;;;;;;13.13;39.12;98820.91;4918631;29;20033;-48
2022/03/12 07:14:26;;;;;;;5.63;3.00;;;;;;;13.06;39.14;98814.91;4917054;29;20100;-48
2022/03/12 07:16:52;;;;;;;6.22;3.65;;;;;;;13.02;39.21;98818.16;4918469;29;20036;-49
2022/03/12 07:19:18;;;;;;;6.20;3.50;;;;;;;12.97;39.19;98810.91;4918563;29;20017;-49
2022/03/12 07:21:44;;;;;;;8.00;3.50;;;;;;;13.03;40.26;98817.94;4918364;29;20030;-49
2022/03/12 07:24:10;;;;;;;4.28;2.90;;;;;;;13.22;39.25;98824.13;4918400;29;20104;-50
2022/03/12 07:26:36;;;;;;;6.65;3.67;;;;;;;13.24;39.41;98832.63;4918398;29;20035;-49
2022/03/12 07:29:02;;;;;;;9.13;4.18;;;;;;;13.48;39.20;98836.31;4917032;29;20024;-50
2022/03/12 07:31:27;;;;;;;11.68;4.13;;;;;;;13.57;39.00;98826.31;4916953;29;20066;-49
2022/03/12 07:33:53;;;;;;;6.70;3.58;;;;;;;13.64;38.86;98834.16;4918272;29;20031;-49
2022/03/12 07:36:19;;;;;;;9.32;4.22;;;;;;;13.78;38.43;98830.38;4918086;29;20581;-49
2022/03/12 07:38:45;;;;;;;6.10;3.75;;;;;;;13.93;38.55;98824.75;4918133;29;20020;-49
2022/03/12 07:41:12;;;;;;;8.40;4.13;;;;;;;13.97;38.01;98820.66;4918135;29;20024;-49
2022/03/12 07:43:38;;;;;;;8.77;4.65;;;;;;;13.98;37.90;98831.00;4918034;29;20577;-49
2022/03/12 07:46:04;;;;;;;7.60;3.50;;;;;;;14.11;37.84;98837.16;4916664;29;20044;-49
2022/03/12 07:48:29;;;;;;;6.75;3.28;;;;;;;14.08;37.68;98830.47;4917989;29;20080;-49
2022/03/12 07:50:56;;;;;;;4.80;3.53;;;;;;;14.16;38.09;98824.91;4916688;29;20130;-49
2022/03/12 07:53:21;;;;;;;5.38;2.65;;;;;;;14.19;37.46;98819.19;4916552;29;20031;-49
2022/03/12 07:55:48;;;;;;;6.13;3.40;;;;;;;14.26;37.71;98828.88;4917807;29;20028;-48
2022/03/12 07:58:15;;;;;;;5.00;3.00;;;;;;;14.15;37.38;98823.31;4916543;29;20017;-50
2022/03/12 08:00:40;;;;;;;7.38;3.83;;;;;;;14.07;37.92;98817.50;4917730;29;20035;-49
2022/03/12 08:03:06;;;;;;;3.47;2.65;;;;;;;14.02;37.79;98818.16;4917778;29;20021;-49
2022/03/12 08:05:32;;;;;;;6.88;2.80;;;;;;;14.09;37.40;98815.47;4916378;29;20028;-50
2022/03/12 08:08:00;;;;;;;5.18;2.88;;;;;;;14.16;37.59;98816.19;4916318;29;20127;-50
2022/03/12 08:10:26;;;;;;;3.65;2.58;;;;;;;14.37;37.59;98809.66;4917618;29;20055;-50
2022/03/12 08:12:52;;;;;;;8.23;2.78;;;;;;;14.46;37.06;98812.78;4916297;29;20051;-48
2022/03/12 08:15:20;;;;;;;4.40;2.53;;;;;;;14.51;36.64;98818.22;4916195;29;20140;-49
2022/03/12 08:17:47;;;;;;;5.60;4.57;;;;;;;14.54;36.55;98812.47;4917378;29;20032;-50
2022/03/12 08:20:14;;;;;;;4.38;3.00;;;;;;;14.58;36.65;98818.97;4917409;29;20462;-50
2022/03/12 08:22:43;;;;;;;4.68;2.70;;;;;;;14.69;36.43;98812.09;4916066;29;20035;-49
2022/03/12 08:25:10;;;;;;;73.82;65.93;;;;;;;14.78;36.46;98811.56;4917329;29;20067;-49
2022/03/12 08:27:37;;;;;;;15.32;12.38;;;;;;;14.91;36.31;98807.13;4917305;29;20508;-49
2022/03/12 08:30:07;;;;;;;10.65;6.03;;;;;;;15.08;36.38;98804.66;4915928;29;20028;-49
2022/03/12 08:32:35;;;;;;;6.30;3.78;;;;;;;15.11;35.81;98804.19;4917272;29;20513;-49
2022/03/12 08:35:02;;;;;;;11.43;6.43;;;;;;;15.19;36.22;98795.94;4915891;29;20376;-49
2022/03/12 08:37:27;;;;;;;6.15;3.28;;;;;;;15.24;35.84;98804.00;4915765;29;20044;-49
2022/03/12 08:39:53;;;;;;;6.63;3.15;;;;;;;15.26;35.38;98806.44;4917109;29;20035;-50
2022/03/12 08:42:24;;;;;;;4.90;3.30;;;;;;;15.33;35.54;98793.88;4917026;29;20032;-49
2022/03/12 08:44:51;;;;;;;5.55;3.17;;;;;;;15.44;35.78;98793.09;4917005;29;20052;-49
2022/03/12 08:47:18;;;;;;;6.35;3.40;;;;;;;15.58;35.05;98804.28;4916921;29;20027;-50
2022/03/12 08:49:44;;;;;;;6.05;3.63;;;;;;;15.62;35.95;98797.47;4917167;29;20028;-50
2022/03/12 08:52:09;;;;;;;7.28;3.30;;;;;;;15.73;35.31;98794.03;4916809;29;20410;-49
2022/03/12 08:54:35;;;;;;;3.97;3.10;;;;;;;15.60;34.98;98791.63;4916801;29;20056;-49
2022/03/12 08:57:02;;;;;;;8.50;6.35;;;;;;;15.59;35.00;98792.63;4915355;29;20504;-49
2022/03/12 08:59:28;;;;;;;6.30;5.32;;;;;;;15.60;35.14;98796.13;4916691;29;20518;-50
2022/03/12 09:01:53;;;;;;;11.10;9.90;;;;;;;15.65;35.01;98793.56;4916684;29;20055;-50
2022/03/12 09:04:19;;;;;;;7.18;4.45;;;;;;;15.66;35.16;98798.63;4916619;29;20399;-50
2022/03/12 09:06:46;;;;;;;4.78;3.42;;;;;;;15.67;35.04;98796.78;4916589;29;20024;-49
2022/03/12 09:09:12;;;;;;;7.97;3.85;;;;;;;15.69;34.84;98797.34;4916555;29;20056;-50
2022/03/12 09:11:38;;;;;;;4.97;3.72;;;;;;;15.74;34.95;98802.81;4916456;29;20058;-49
2022/03/12 09:14:04;;;;;;;5.63;3.28;;;;;;;15.86;34.72;98786.94;4916329;29;20071;-49
2022/03/12 09:16:31;;;;;;;4.80;3.22;;;;;;;15.93;34.66;98780.44;4916346;29;20047;-50
2022/03/12 09:18:57;;;;;;;5.63;3.00;;;;;;;15.96;34.57;98782.63;4916379;29;20032;-49
2022/03/12 09:21:23;;;;;;;5.82;2.75;;;;;;;16.03;34.73;98776.41;4916270;29;20050;-49
2022/03/12 09:23:49;;;;;;;18.55;5.90;;;;;;;16.18;36.20;98782.81;4915015;29;20024;-49
2022/03/12 09:26:18;;;;;;;3.95;3.10;;;;;;;16.38;34.77;98776.34;4915919;29;20035;-49
2022/03/12 09:28:44;;;;;;;8.55;3.38;;;;;;;16.33;34.20;98773.56;4916200;29;20075;-50
2022/03/12 09:31:11;;;;;;;6.28;2.92;;;;;;;16.32;34.50;98771.97;4916209;29;20024;-49
2022/03/12 09:33:38;;;;;;;7.05;2.78;;;;;;;16.35;34.23;98774.13;4916138;29;20024;-49
2022/03/12 09:36:04;;;;;;;5.75;3.40;;;;;;;16.37;35.12;98767.56;4916055;29;20028;-50
2022/03/12 09:38:30;;;;;;;8.23;2.95;;;;;;;16.53;34.44;98767.84;4916043;29;20024;-50
2022/03/12 09:40:56;;;;;;;4.40;3.20;;;;;;;16.50;34.47;98776.25;4916030;29;20035;-50
2022/03/12 09:43:21;;;;;;;10.55;3.72;;;;;;;16.54;34.37;98772.94;4915984;29;20499;-50
2022/03/12 09:45:47;;;;;;;4.75;2.95;;;;;;;16.65;34.17;98770.47;4914662;29;20087;-49
2022/03/12 09:48:13;;;;;;;4.63;3.05;;;;;;;16.73;33.67;98764.78;4914670;29;20526;-50
2022/03/12 09:50:39;;;;;;;7.55;2.90;;;;;;;16.69;34.16;98766.28;4915891;29;20027;-50
2022/03/12 09:53:05;;;;;;;5.25;2.80;;;;;;;16.64;33.75;98763.53;4915908;29;20024;-50
2022/03/12 09:55:34;;;;;;;6.65;4.18;;;;;;;16.63;33.84;98760.09;4914437;29;20031;-50
2022/03/12 09:58:00;;;;;;;6.32;3.13;;;;;;;16.60;34.16;98763.22;4915824;29;20038;-50
2022/03/12 10:00:26;;;;;;;10.00;2.95;;;;;;;16.69;34.10;98766.28;4915758;29;20020;-50
2022/03/12 10:02:52;;;;;;;4.63;2.90;;;;;;;16.79;33.51;98747.91;4916006;29;20051;-50
2022/03/12 10:05:18;;;;;;;5.32;2.97;;;;;;;16.84;33.59;98758.66;4915706;29;20055;-50
2022/03/12 10:07:44;;;;;;;6.13;3.03;;;;;;;16.87;33.53;98755.50;4914397;29;20111;-50
2022/03/12 10:10:22;;;;;;;6.28;3.13;;;;;;;16.82;33.87;98759.91;4915658;29;20056;-50
2022/03/12 10:12:49;;;;;;;6.22;3.75;;;;;;;16.77;34.05;98755.31;4915743;29;20126;-50
2022/03/12 10:15:16;;;;;;;4.10;3.00;;;;;;;16.72;33.84;98760.50;4914012;29;20090;-49
2022/03/12 10:17:43;;;;;;;8.13;3.00;;;;;;;16.56;34.14;98762.91;4915578;29;20123;-50
2022/03/12 10:20:11;;;;;;;6.82;3.70;;;;;;;16.46;34.12;98756.59;4915546;29;20151;-50
2022/03/12 10:22:39;;;;;;;6.97;3.80;;;;;;;16.44;34.33;98754.19;4915517;29;20028;-49
2022/03/12 10:25:06;;;;;;;5.68;3.80;;;;;;;16.55;35.67;98757.81;4914225;29;20025;-50
2022/03/12 10:27:32;;;;;;;6.22;3.17;;;;;;;16.78;35.07;98749.78;4914278;29;20028;-50
2022/03/12 10:29:59;;;;;;;7.53;3.78;;;;;;;16.91;34.15;98759.28;4914265;29;20112;-50
2022/03/12 10:32:29;;;;;;;8.55;3.80;;;;;;;16.91;33.80;98753.97;4915448;29;20054;-50
2022/03/12 10:34:59;;;;;;;4.18;2.92;;;;;;;16.75;33.80;98750.22;4914256;29;20036;-49
2022/03/12 10:37:31;;;;;;;4.90;3.17;;;;;;;16.64;34.11;98751.13;4915700;29;20064;-50
2022/03/12 10:40:08;;;;;;;6.88;3.55;;;;;;;16.56;34.07;98746.19;4919180;29;20047;-49
2022/03/12 10:42:37;;;;;;;7.10;3.50;;;;;;;16.44;34.12;98748.06;4919205;29;20024;-49
2022/03/12 10:45:11;;;;;;;7.00;4.93;;;;;;;16.36;34.39;98742.13;4919089;29;20582;-50
2022/03/12 10:47:49;;;;;;;4.45;3.40;;;;;;;16.38;34.34;98744.53;4919126;29;20086;-50
2022/03/12 10:50:22;;;;;;;5.60;3.58;;;;;;;16.36;34.39;98741.34;4919089;29;20024;-49
2022/03/12 10:52:51;;;;;;;8.05;3.60;;;;;;;16.40;34.69;98737.16;4919048;29;20042;-50
2022/03/12 10:55:25;;;;;;;3.60;3.20;;;;;;;16.45;35.08;98742.53;4918952;29;20503;-49
2022/03/12 10:58:02;;;;;;;6.07;3.90;;;;;;;16.64;34.61;98750.28;4918881;29;20024;-48
2022/03/12 11:00:37;;;;;;;5.90;3.58;;;;;;;16.78;34.27;98741.00;4918886;29;20043;-50
2022/03/12 11:03:10;;;;;;;6.13;3.70;;;;;;;16.85;34.09;98743.53;4918918;29;20096;-50
2022/03/12 11:05:37;;;;;;;9.13;4.20;;;;;;;16.83;34.11;98742.97;4918831;29;20040;-50
2022/03/12 11:08:16;;;;;;;10.02;5.28;;;;;;;16.78;33.86;98730.38;4918793;29;20031;-50
2022/03/12 11:11:06;;;;;;;4.28;3.65;;;;;;;16.82;34.13;98728.94;4918784;29;20106;-50
2022/03/12 11:13:47;;;;;;;9.10;4.78;;;;;;;16.90;34.64;98730.34;4917455;29;20566;-49
2022/03/12 11:16:32;;;;;;;4.43;3.20;;;;;;;17.09;33.74;98723.78;4918343;29;20556;-50
2022/03/12 11:19:02;;;;;;;5.78;4.30;;;;;;;17.03;33.64;98724.75;4918534;29;20032;-50
2022/03/12 11:21:37;;;;;;;9.70;4.68;;;;;;;16.96;33.46;98724.09;4919075;29;20036;-49
2022/03/12 11:24:26;;;;;;;9.35;5.80;;;;;;;17.02;33.98;98728.44;4917189;29;20024;-49
2022/03/12 11:27:04;;;;;;;5.78;3.65;;;;;;;17.00;33.63;98716.47;4918454;29;20399;-50
2022/03/12 11:29:31;;;;;;;5.95;4.28;;;;;;;17.01;33.72;98726.03;4918429;29;20032;-50
2022/03/12 11:31:59;;;;;;;9.55;4.88;;;;;;;16.98;33.23;98719.34;4917015;29;20028;-49
2022/03/12 11:34:32;;;;;;;5.40;4.35;;;;;;;16.89;33.44;98721.59;4918247;29;20028;-49
2022/03/12 11:37:09;;;;;;;6.70;3.67;;;;;;;16.90;34.09;98714.44;4918219;29;20164;-50